Time,TemperatureF,DewpointF,PressureIn,WindDirection,WindDirectionDegrees,WindSpeedMPH,WindSpeedGustMPH,Humidity,HourlyPrecipIn,Conditions,Clouds,dailyrainin,SoftwareType,DateUTC
2013-05-15 00:04:00,80.1,55.6,29.70,WNW,292,5.8,-999.0,43,-99.99,,,0.00,Acu-Link.com,2013-05-15 05:04:00,
2013-05-15 00:19:00,78.8,54.4,29.70,NW,315,2.2,-999.0,43,-99.99,,,0.00,Acu-Link.com,2013-05-15 05:19:00,
2013-05-15 00:34:00,79.2,49.2,29.70,NNW,337,3.7,-999.0,35,-99.99,,,0.00,Acu-Link.com,2013-05-15 05:34:00,
2013-05-15 00:49:00,76.5,46.8,29.70,NNW,337,0.0,-999.0,35,-99.99,,,0.00,Acu-Link.com,2013-05-15 05:49:00,
2013-05-15 01:04:00,74.1,47.5,29.71,NNW,337,0.0,-999.0,39,-99.99,,,0.00,Acu-Link.com,2013-05-15 06:04:00,
2013-05-15 01:19:00,72.5,47.4,29.71,NNW,337,3.7,-999.0,41,-99.99,,,0.00,Acu-Link.com,2013-05-15 06:19:00,
2013-05-15 01:34:00,70.7,44.5,29.72,NNW,337,0.0,-999.0,39,-99.99,,,0.00,Acu-Link.com,2013-05-15 06:34:00,
2013-05-15 01:49:00,68.7,45.9,29.72,NNW,337,0.0,-999.0,44,-99.99,,,0.00,Acu-Link.com,2013-05-15 06:49:00,
2013-05-15 02:04:00,66.9,46.6,29.73,NNW,337,0.0,-999.0,48,-99.99,,,0.00,Acu-Link.com,2013-05-15 07:04:00,
2013-05-15 02:20:00,65.1,46.5,29.73,NNW,337,0.0,-999.0,51,-99.99,,,0.00,Acu-Link.com,2013-05-15 07:20:00,
2013-05-15 02:35:00,68.4,46.8,29.74,NNW,337,4.2,-999.0,46,-99.99,,,0.00,Acu-Link.com,2013-05-15 07:35:00,
2013-05-15 02:50:00,70.0,45.2,29.75,NNW,337,9.4,-999.0,41,-99.99,,,0.00,Acu-Link.com,2013-05-15 07:50:00,
2013-05-15 03:05:00,68.9,45.5,29.76,NNW,337,3.7,-999.0,43,-99.99,,,0.00,Acu-Link.com,2013-05-15 08:05:00,
2013-05-15 03:20:00,68.7,45.3,29.75,NNW,337,4.2,-999.0,43,-99.99,,,0.00,Acu-Link.com,2013-05-15 08:20:00,
2013-05-15 03:36:00,68.2,46.0,29.75,North,0,3.2,-999.0,45,-99.99,,,0.00,Acu-Link.com,2013-05-15 08:36:00,
2013-05-15 04:06:00,65.8,49.7,29.76,NNW,337,2.7,-999.0,56,-99.99,,,0.00,Acu-Link.com,2013-05-15 09:06:00,
2013-05-15 04:21:00,64.8,51.0,29.76,NE,45,1.1,-999.0,61,-99.99,,,0.00,Acu-Link.com,2013-05-15 09:21:00,
2013-05-15 04:37:00,63.7,52.5,29.76,NE,45,1.7,-999.0,67,-99.99,,,0.00,Acu-Link.com,2013-05-15 09:37:00,
2013-05-15 04:52:00,61.9,55.3,29.77,NE,45,0.0,-999.0,79,-99.99,,,0.00,Acu-Link.com,2013-05-15 09:52:00,
2013-05-15 05:07:00,59.9,58.8,29.77,NE,45,0.0,-999.0,96,-99.99,,,0.00,Acu-Link.com,2013-05-15 10:07:00,
2013-05-15 05:22:00,58.3,57.7,29.77,NE,45,0.0,-999.0,98,-99.99,,,0.00,Acu-Link.com,2013-05-15 10:22:00,
2013-05-15 05:37:00,57.2,56.6,29.77,NE,45,0.0,-999.0,98,-99.99,,,0.00,Acu-Link.com,2013-05-15 10:37:00,
2013-05-15 05:52:00,56.5,55.9,29.79,NE,45,0.0,-999.0,98,-99.99,,,0.00,Acu-Link.com,2013-05-15 10:52:00,
2013-05-15 06:07:00,57.2,56.6,29.79,NE,45,2.7,-999.0,98,-99.99,,,0.00,Acu-Link.com,2013-05-15 11:07:00,
2013-05-15 06:22:00,58.3,57.7,29.80,NNW,337,3.7,-999.0,98,-99.99,,,0.00,Acu-Link.com,2013-05-15 11:22:00,
2013-05-15 06:37:00,59.2,58.6,29.81,West,270,2.2,-999.0,98,-99.99,,,0.00,Acu-Link.com,2013-05-15 11:37:00,
2013-05-15 06:53:00,60.8,60.2,29.82,NNW,337,5.8,-999.0,98,-99.99,,,0.00,Acu-Link.com,2013-05-15 11:53:00,
2013-05-15 07:08:00,62.2,61.6,29.84,WNW,292,4.7,-999.0,98,-99.99,,,0.00,Acu-Link.com,2013-05-15 12:08:00,
2013-05-15 07:23:00,63.7,63.1,29.85,NNW,337,5.8,-999.0,98,-99.99,,,0.00,Acu-Link.com,2013-05-15 12:23:00,
2013-05-15 07:38:00,65.5,64.0,29.84,NNW,337,3.2,-999.0,95,-99.99,,,0.00,Acu-Link.com,2013-05-15 12:38:00,
2013-05-15 07:53:00,64.8,62.4,29.84,NNW,337,4.2,-999.0,92,-99.99,,,0.00,Acu-Link.com,2013-05-15 12:53:00,
2013-05-15 08:08:00,65.8,60.8,29.84,WNW,292,0.0,-999.0,84,-99.99,,,0.00,Acu-Link.com,2013-05-15 13:08:00,
2013-05-15 08:38:00,68.2,56.4,29.84,SW,225,5.8,-999.0,66,-99.99,,,0.00,Acu-Link.com,2013-05-15 13:38:00,
2013-05-15 08:53:00,67.8,58.0,29.84,North,0,5.8,-999.0,71,-99.99,,,0.00,Acu-Link.com,2013-05-15 13:53:00,
2013-05-15 09:08:00,68.9,57.5,29.85,North,0,4.7,-999.0,67,-99.99,,,0.00,Acu-Link.com,2013-05-15 14:08:00,
2013-05-15 09:39:00,69.4,57.1,29.86,NNW,337,9.4,-999.0,65,-99.99,,,0.00,Acu-Link.com,2013-05-15 14:39:00,
2013-05-15 10:24:00,72.9,55.3,29.87,NNW,337,5.8,-999.0,54,-99.99,,,0.00,Acu-Link.com,2013-05-15 15:24:00,
2013-05-15 10:39:00,73.8,52.3,29.88,East,90,4.7,-999.0,47,-99.99,,,0.00,Acu-Link.com,2013-05-15 15:39:00,
2013-05-15 10:54:00,74.5,52.3,29.88,ESE,112,7.8,-999.0,46,-99.99,,,0.00,Acu-Link.com,2013-05-15 15:54:00,
2013-05-15 11:25:00,77.2,48.2,29.87,SE,135,7.3,-999.0,36,-99.99,,,0.00,Acu-Link.com,2013-05-15 16:25:00,
2013-05-15 11:40:00,77.4,47.6,29.86,SE,135,6.3,-999.0,35,-99.99,,,0.00,Acu-Link.com,2013-05-15 16:40:00,
2013-05-15 11:55:00,79.2,45.1,29.86,East,90,7.8,-999.0,30,-99.99,,,0.00,Acu-Link.com,2013-05-15 16:55:00,
2013-05-15 12:10:00,78.8,45.6,29.86,NW,315,9.4,-999.0,31,-99.99,,,0.00,Acu-Link.com,2013-05-15 17:10:00,
2013-05-15 12:25:00,78.8,42.9,29.85,East,90,4.7,-999.0,28,-99.99,,,0.00,Acu-Link.com,2013-05-15 17:25:00,
2013-05-15 12:40:00,81.1,38.6,29.85,ESE,112,4.7,-999.0,22,-99.99,,,0.00,Acu-Link.com,2013-05-15 17:40:00,
2013-05-15 12:55:00,80.2,40.1,29.85,North,0,8.9,-999.0,24,-99.99,,,0.00,Acu-Link.com,2013-05-15 17:55:00,
2013-05-15 13:10:00,81.7,40.3,29.84,ESE,112,4.2,-999.0,23,-99.99,,,0.00,Acu-Link.com,2013-05-15 18:10:00,
2013-05-15 13:25:00,82.4,30.1,29.84,East,90,7.3,-999.0,15,-99.99,,,0.00,Acu-Link.com,2013-05-15 18:25:00,
2013-05-15 13:41:00,82.8,41.2,29.83,ESE,112,5.8,-999.0,23,-99.99,,,0.00,Acu-Link.com,2013-05-15 18:41:00,
2013-05-15 13:56:00,80.4,40.3,29.83,East,90,4.2,-999.0,24,-99.99,,,0.00,Acu-Link.com,2013-05-15 18:56:00,
2013-05-15 14:11:00,83.1,-13.8,29.83,ESE,112,2.2,-999.0,2,-99.99,,,0.00,Acu-Link.com,2013-05-15 19:11:00,
2013-05-15 14:26:00,84.2,-26.3,29.82,ESE,112,6.8,-999.0,1,-99.99,,,0.00,Acu-Link.com,2013-05-15 19:26:00,
2013-05-15 14:41:00,84.0,-26.5,29.82,NNW,337,4.2,-999.0,1,-99.99,,,0.00,Acu-Link.com,2013-05-15 19:41:00,
2013-05-15 14:56:00,83.8,35.8,29.80,East,90,4.2,-999.0,18,-99.99,,,0.00,Acu-Link.com,2013-05-15 19:56:00,
2013-05-15 15:11:00,82.9,41.3,29.79,ESE,112,7.3,-999.0,23,-99.99,,,0.00,Acu-Link.com,2013-05-15 20:11:00,
2013-05-15 15:26:00,84.2,42.4,29.79,NE,45,8.9,-999.0,23,-99.99,,,0.00,Acu-Link.com,2013-05-15 20:26:00,
2013-05-15 15:41:00,82.9,43.4,29.79,ESE,112,2.7,-999.0,25,-99.99,,,0.00,Acu-Link.com,2013-05-15 20:41:00,
2013-05-15 16:27:00,82.0,42.7,29.79,East,90,4.2,-999.0,25,-99.99,,,0.00,Acu-Link.com,2013-05-15 21:27:00,
2013-05-15 16:42:00,83.8,43.1,29.79,ESE,112,9.4,-999.0,24,-99.99,,,0.00,Acu-Link.com,2013-05-15 21:42:00,
2013-05-15 16:57:00,83.3,43.8,29.79,ESE,112,5.3,-999.0,25,-99.99,,,0.00,Acu-Link.com,2013-05-15 21:57:00,
2013-05-15 17:12:00,83.1,43.6,29.79,ESE,112,3.7,-999.0,25,-99.99,,,0.00,Acu-Link.com,2013-05-15 22:12:00,
2013-05-15 17:27:00,84.9,44.1,29.79,SE,135,4.2,-999.0,24,-99.99,,,0.00,Acu-Link.com,2013-05-15 22:27:00,
2013-05-15 17:42:00,85.3,44.4,29.80,ESE,112,5.3,-999.0,24,-99.99,,,0.00,Acu-Link.com,2013-05-15 22:42:00,
2013-05-15 17:57:00,84.4,44.7,29.80,SSE,157,4.7,-999.0,25,-99.99,,,0.00,Acu-Link.com,2013-05-15 22:57:00,
2013-05-15 18:43:00,83.7,43.1,29.79,SSE,157,3.2,-999.0,24,-99.99,,,0.00,Acu-Link.com,2013-05-15 23:43:00,
2013-05-15 18:58:00,83.1,42.5,29.79,ESE,112,3.7,-999.0,24,-99.99,,,0.00,Acu-Link.com,2013-05-15 23:58:00,
2013-05-15 19:13:00,80.8,43.7,29.79,SE,135,2.2,-999.0,27,-99.99,,,0.00,Acu-Link.com,2013-05-16 00:13:00,
2013-05-15 19:28:00,80.8,43.7,29.79,ESE,112,4.2,-999.0,27,-99.99,,,0.00,Acu-Link.com,2013-05-16 00:28:00,
2013-05-15 19:58:00,77.9,44.8,29.79,SE,135,0.0,-999.0,31,-99.99,,,0.01,Acu-Link.com,2013-05-16 00:58:00,
2013-05-15 20:13:00,75.7,45.3,29.79,SE,135,0.0,-999.0,34,-99.99,,,0.01,Acu-Link.com,2013-05-16 01:13:00,
2013-05-15 20:29:00,73.6,45.7,29.79,SE,135,0.0,-999.0,37,-99.99,,,0.01,Acu-Link.com,2013-05-16 01:29:00,
2013-05-15 20:59:00,69.3,48.2,29.79,SE,135,0.0,-999.0,47,-99.99,,,0.01,Acu-Link.com,2013-05-16 01:59:00,
2013-05-15 21:14:00,68.0,49.2,29.79,SE,135,0.0,-999.0,51,-99.99,,,0.01,Acu-Link.com,2013-05-16 02:14:00,
2013-05-15 21:29:00,66.4,53.8,29.79,SE,135,0.0,-999.0,64,-99.99,,,0.01,Acu-Link.com,2013-05-16 02:29:00,
2013-05-15 21:44:00,65.3,54.1,29.80,SE,135,0.0,-999.0,67,-99.99,,,0.01,Acu-Link.com,2013-05-16 02:44:00,
2013-05-15 21:59:00,64.9,63.4,29.80,SE,135,0.0,-999.0,95,-99.99,,,0.01,Acu-Link.com,2013-05-16 02:59:00,
2013-05-15 22:14:00,64.4,62.3,29.80,SE,135,0.0,-999.0,93,-99.99,,,0.01,Acu-Link.com,2013-05-16 03:14:00,
2013-05-15 22:29:00,64.0,57.0,29.81,SE,135,0.0,-999.0,78,-99.99,,,0.01,Acu-Link.com,2013-05-16 03:29:00,
2013-05-15 22:45:00,63.9,63.3,29.81,SE,135,0.0,-999.0,98,-99.99,,,0.01,Acu-Link.com,2013-05-16 03:45:00,
2013-05-15 23:15:00,68.5,54.5,29.80,ESE,112,3.2,-999.0,61,-99.99,,,0.01,Acu-Link.com,2013-05-16 04:15:00,
2013-05-15 23:30:00,68.9,54.0,29.81,East,90,5.3,-999.0,59,-99.99,,,0.01,Acu-Link.com,2013-05-16 04:30:00,
2013-05-15 23:45:00,69.1,53.7,29.81,ESE,112,3.7,-999.0,58,-99.99,,,0.01,Acu-Link.com,2013-05-16 04:45:00,